Rockport, MA (01966)

1:00 PM EST on December 25, 2014 (GMT -0500)
KMAROCKP3 | Change Station
CLOSE
Current Station
Personal Weather Station
Location: Rockport, MA
Elevation: 53 ft
Nearby Weather Stations

Elev 53 ft 42.66 °N, 70.61 °W | Updated 9 seconds ago

Mostly Cloudy
Mostly Cloudy
52.0 °F
Feels Like 52.0 °F
N
8.0
Wind Variable Wind from WSW
Gusts 18.0 mph

Today
High -- | Low -- °F
--% Chance of Precip.
Yesterday
High -- | Low -- °F
Precip. -- in
7:11 AM 4:14 PM
Waxing Crescent, 18% visible
Pressure 29.56 in
Visibility 10.0 miles
Clouds Mostly Cloudy 4400 ft
Mostly Cloudy 20000 ft
Dew Point 40 °F
Humidity 64%
Rainfall 0.11 in
Snow Depth Not available.
UV 1 out of 12
Pollen .10 out of 12
Air Quality Not available.
Flu Activity Not available.
METAR KBVY 251753Z 28017G25KT 10SM BKN044 BKN200 11/02 A2957 RMK AO2 PK WND 28030/1704 SLP009 60014 T01110017 10150 20100 53013

More Conditions Fewer Conditions

Pressure 29.56 in
Visibility 10.0 miles
Clouds Mostly Cloudy 4400 ft
Mostly Cloudy 20000 ft
Dew Point 40 °F
Humidity 64%
Rainfall 0.11 in
Snow Depth Not available.
UV 1 out of 12
Pollen .10 out of 12
Air Quality Not available.
Flu Activity Not available.
METAR KBVY 251753Z 28017G25KT 10SM BKN044 BKN200 11/02 A2957 RMK AO2 PK WND 28030/1704 SLP009 60014 T01110017 10150 20100 53013

More Conditions Fewer Conditions

10-Day Weather Forecast

Almanac

Astronomy

Dec. 25, 2014 Rise Set
Actual Time
Civil Twilight
Nautical Twilight
Astronomical Twilight
Moon
Length of Visible Light
Length of Day
Tomorrow will be .
, % of the Moon is Illuminated

Today's Extremes

State Highs State Lows

Community

WunderPhotos

Upload Photos

1,780,351 photos uploaded!

WunderBlogs® & News

Nearby

Air Quality

  Air Quality AQ Index Pollutant
Not available.

Snow Depth

Station Depth Elevation

Earthquake Activity

City Distance Mag. Time & Date
Minimum magnitude displayed is 2.5.

Coastal Water Temperatures

Place Temperature

Nearby Weather Stations